createdAt,value
2018-06-25T00:02:12.690Z,2.99
2018-06-25T00:08:07.739Z,4.49
2018-06-25T00:14:02.775Z,4.63
2018-06-25T00:19:57.718Z,3.2
2018-06-25T00:25:52.732Z,5.07
2018-06-25T00:31:47.683Z,3.78
2018-06-25T00:37:42.707Z,4.45
2018-06-25T00:43:37.681Z,4.5
2018-06-25T00:49:32.740Z,3.05
2018-06-25T00:55:27.762Z,4.17
2018-06-25T01:01:22.737Z,3.82
2018-06-25T01:07:17.726Z,3.65
2018-06-25T01:13:12.728Z,3.38
2018-06-25T01:19:07.744Z,4.85
2018-06-25T01:25:02.750Z,2.92
2018-06-25T01:30:57.755Z,4.04
2018-06-25T01:36:52.774Z,4.67
2018-06-25T01:42:47.723Z,3.5
2018-06-25T01:48:42.803Z,3.03
2018-06-25T01:54:37.738Z,3.73
2018-06-25T02:00:32.744Z,3.07
2018-06-25T02:06:27.783Z,3.79
2018-06-25T02:12:22.753Z,5.48
2018-06-25T02:18:17.733Z,4.03
2018-06-25T02:24:12.786Z,3.81
2018-06-25T02:30:07.762Z,3.1
2018-06-25T02:36:02.812Z,3.49
2018-06-25T02:41:57.775Z,4.55
2018-06-25T02:47:52.750Z,3.6
2018-06-25T02:53:47.845Z,4.58
2018-06-25T02:59:42.837Z,3.46
2018-06-25T03:05:37.791Z,2.99
2018-06-25T03:11:32.781Z,4.84
2018-06-25T03:17:27.838Z,3.69
2018-06-25T03:23:22.832Z,4.61
2018-06-25T03:29:17.839Z,2.87
2018-06-25T03:35:12.834Z,3.85
2018-06-25T03:41:07.831Z,2.82
2018-06-25T03:47:02.878Z,4.04
2018-06-25T03:52:57.830Z,3.74
2018-06-25T03:58:52.855Z,3.33
2018-06-25T04:04:47.843Z,3.53
2018-06-25T04:10:42.885Z,2.87
2018-06-25T04:16:37.834Z,6.95
2018-06-25T04:22:32.923Z,3.37
2018-06-25T04:28:27.881Z,4.34
2018-06-25T04:34:22.850Z,5.27
2018-06-25T04:40:17.951Z,3.98
2018-06-25T04:46:12.925Z,3.07
2018-06-25T04:52:07.952Z,3.26
2018-06-25T04:58:02.856Z,3.54
2018-06-25T05:03:57.865Z,3.02
2018-06-25T05:09:52.864Z,5.59
2018-06-25T05:15:47.853Z,4.6
2018-06-25T05:21:42.856Z,3.82
2018-06-25T05:27:37.889Z,3.67
2018-06-25T05:33:32.896Z,3.92
2018-06-25T05:39:27.899Z,4.45
2018-06-25T05:45:22.954Z,5.4
2018-06-25T05:51:17.932Z,4.09
2018-06-25T05:57:12.927Z,3.61
2018-06-25T06:03:07.907Z,3.86
2018-06-25T06:09:02.967Z,3.7
2018-06-25T06:14:57.901Z,3.52
2018-06-25T06:20:52.928Z,5.37
2018-06-25T06:26:47.906Z,3.78
2018-06-25T06:32:42.929Z,5.41
2018-06-25T06:38:37.895Z,2.53
2018-06-25T06:44:32.988Z,4.46
2018-06-25T06:50:27.910Z,3.09
2018-06-25T06:56:22.946Z,2.33
2018-06-25T07:02:17.939Z,3.33
2018-06-25T07:08:12.960Z,3.9
2018-06-25T07:14:08.001Z,3.05
2018-06-25T07:20:03.121Z,3.03
2018-06-25T07:25:57.962Z,3.51
2018-06-25T07:31:52.960Z,5.14
2018-06-25T07:37:48.059Z,5.56
2018-06-25T07:43:42.959Z,3.51
2018-06-25T07:49:38.049Z,5.37
2018-06-25T07:55:33.084Z,4.73
2018-06-25T08:01:27.982Z,5.59
2018-06-25T08:07:23.040Z,3.9
2018-06-25T08:13:18.035Z,3.9
2018-06-25T08:19:13.008Z,3.37
2018-06-25T08:25:07.997Z,4.85
2018-06-25T08:31:02.976Z,4.2
2018-06-25T08:36:58.081Z,2.15
2018-06-25T08:42:53.027Z,1.67
2018-06-25T08:48:48.006Z,3.41
2018-06-25T08:54:43.009Z,2.58
2018-06-25T09:00:38.060Z,1.5
2018-06-25T09:06:33.049Z,2.89
2018-06-25T09:12:28.045Z,2.43
2018-06-25T09:18:23.088Z,2.12
2018-06-25T09:24:18.054Z,1.94
2018-06-25T09:30:13.150Z,2.6
2018-06-25T09:36:08.034Z,1.97
2018-06-25T09:42:03.060Z,2.01
2018-06-25T09:47:58.080Z,2.03
2018-06-25T09:53:53.094Z,1.24
2018-06-25T09:59:48.096Z,1.6
2018-06-25T10:05:43.113Z,4.6
2018-06-25T10:11:38.098Z,2.33
2018-06-25T10:17:33.117Z,2.76
2018-06-25T10:23:28.082Z,2.42
2018-06-25T10:29:23.126Z,1.87
2018-06-25T10:35:18.126Z,3.68
2018-06-25T10:41:13.154Z,3.18
2018-06-25T10:47:08.105Z,1.74
2018-06-25T10:53:03.119Z,1.64
2018-06-25T10:58:58.097Z,1.15
2018-06-25T11:04:53.112Z,0.53
2018-06-25T11:10:48.093Z,0.58
2018-06-25T11:16:43.156Z,0.78
2018-06-25T11:22:38.106Z,0.92
2018-06-25T11:28:33.176Z,0.68
2018-06-25T11:34:28.225Z,5.06
2018-06-25T11:40:23.189Z,2.26
2018-06-25T11:46:18.164Z,1.53
2018-06-25T11:52:13.165Z,0.58
2018-06-25T11:58:08.198Z,0.57
2018-06-25T12:04:03.171Z,0.51
2018-06-25T12:09:58.162Z,1.67
2018-06-25T12:15:53.184Z,2.02
2018-06-25T12:21:48.208Z,2.79
2018-06-25T12:27:43.301Z,3.54
2018-06-25T12:33:38.202Z,2.6
2018-06-25T12:39:33.198Z,1.98
2018-06-25T12:45:28.204Z,1.3
2018-06-25T12:51:23.200Z,1.11
2018-06-25T12:57:18.251Z,3
2018-06-25T13:03:13.253Z,1.23
2018-06-25T13:09:08.272Z,1.49
2018-06-25T13:15:03.304Z,1.52
2018-06-25T13:20:58.247Z,1.24
2018-06-25T13:26:53.220Z,0.72
2018-06-25T13:32:48.240Z,0.89
2018-06-25T13:38:43.267Z,0.73
2018-06-25T13:44:38.233Z,0.37
2018-06-25T13:50:33.275Z,1.08
2018-06-25T13:56:28.283Z,0.94
2018-06-25T14:02:23.258Z,1.76
2018-06-25T14:08:18.323Z,2.88
2018-06-25T14:14:13.269Z,1.13
2018-06-25T14:20:08.274Z,1.14
2018-06-25T14:26:03.255Z,1.1
2018-06-25T14:31:58.326Z,1.17
2018-06-25T14:37:53.294Z,0.66
2018-06-25T14:43:48.342Z,0.74
2018-06-25T14:49:43.288Z,2.09
2018-06-25T14:55:38.345Z,2.24
2018-06-25T15:01:33.278Z,0.95
2018-06-25T15:07:28.278Z,0.57
2018-06-25T15:13:23.325Z,1.55
2018-06-25T15:19:18.302Z,2.96
2018-06-25T15:25:13.346Z,0.91
2018-06-25T15:31:08.343Z,1.42
2018-06-25T15:37:03.333Z,0.47
2018-06-25T15:42:58.353Z,0.59
2018-06-25T15:48:53.325Z,0.46
2018-06-25T15:54:48.335Z,0.92
2018-06-25T16:00:43.342Z,0.76
2018-06-25T16:06:38.409Z,1.44
2018-06-25T16:12:33.360Z,0.53
2018-06-25T16:18:28.382Z,0.55
2018-06-25T16:24:23.355Z,0.73
2018-06-25T16:30:18.342Z,1.07
2018-06-25T16:36:13.437Z,0.99
2018-06-25T16:42:08.402Z,1.23
2018-06-25T16:48:03.394Z,0.78
2018-06-25T16:53:58.369Z,0.79
2018-06-25T16:59:53.371Z,0.94
2018-06-25T17:05:48.433Z,0.96
2018-06-25T17:11:43.397Z,0.95
2018-06-25T17:17:38.400Z,2.37
2018-06-25T17:23:33.404Z,0.78
2018-06-25T17:29:28.409Z,2.12
2018-06-25T17:35:23.452Z,2.13
2018-06-25T17:41:18.430Z,1.27
2018-06-25T17:47:13.458Z,2
2018-06-25T17:53:08.430Z,2.01
2018-06-25T17:59:03.456Z,1.03
2018-06-25T18:04:58.430Z,1.1
2018-06-25T18:10:53.461Z,1.98
2018-06-25T18:16:48.465Z,1.51
2018-06-25T18:22:43.472Z,1.37
2018-06-25T18:28:38.422Z,1.87
2018-06-25T18:34:33.458Z,1.29
2018-06-25T18:40:28.480Z,1.57
2018-06-25T18:46:23.423Z,1.18
2018-06-25T18:52:18.450Z,1.87
2018-06-25T18:58:13.455Z,1.44
2018-06-25T19:04:08.482Z,2.84
2018-06-25T19:10:03.478Z,1.05
2018-06-25T19:15:58.521Z,1.64
2018-06-25T19:21:53.548Z,1.79
2018-06-25T19:27:48.521Z,1.79
2018-06-25T19:33:43.499Z,2.36
2018-06-25T19:39:38.490Z,4.1
2018-06-25T19:45:33.534Z,2.52
2018-06-25T19:51:28.549Z,1.28
2018-06-25T19:57:23.550Z,1.73
2018-06-25T20:03:18.535Z,1.84
2018-06-25T20:09:13.521Z,2.21
2018-06-25T20:15:08.654Z,1.78
2018-06-25T20:21:03.526Z,1
2018-06-25T20:26:58.697Z,2.12
2018-06-25T20:32:53.679Z,1.73
2018-06-25T20:38:48.563Z,1.3
2018-06-25T20:44:43.582Z,3.76
2018-06-25T20:50:38.529Z,3.3
2018-06-25T20:56:33.548Z,1.4
2018-06-25T21:02:28.668Z,1.07
2018-06-25T21:08:23.556Z,1.76
2018-06-25T21:14:18.600Z,3
2018-06-25T21:20:13.569Z,1.27
2018-06-25T21:26:08.591Z,1.33
2018-06-25T21:32:03.649Z,1.24
2018-06-25T21:37:58.634Z,1.65
2018-06-25T21:43:53.598Z,2.86
2018-06-25T21:49:48.642Z,2.37
2018-06-25T21:55:43.609Z,1.87
2018-06-25T22:01:38.656Z,2.4
2018-06-25T22:07:33.612Z,2.17
2018-06-25T22:13:28.603Z,1.42
2018-06-25T22:19:23.712Z,1.63
2018-06-25T22:25:18.675Z,1.36
2018-06-25T22:31:13.665Z,1.54
2018-06-25T22:37:08.617Z,2.04
2018-06-25T22:43:03.666Z,2.14
2018-06-25T22:48:58.676Z,2.96
2018-06-25T22:54:53.653Z,1.4
2018-06-25T23:00:48.692Z,1.59
2018-06-25T23:06:43.660Z,1.82
2018-06-25T23:12:38.678Z,1.55
2018-06-25T23:18:33.684Z,1.7
2018-06-25T23:24:28.666Z,1.67
2018-06-25T23:30:23.744Z,2.32
2018-06-25T23:36:18.708Z,2.23
2018-06-25T23:42:13.671Z,2.07
2018-06-25T23:48:08.684Z,1.68
2018-06-25T23:54:03.678Z,1.56
2018-06-25T23:59:58.704Z,1.83
